Time;durP1;ratioP1;P1;durP2;ratioP2;P2;SDS_P1;SDS_P2;PMS_P1;PMS_P2;Temp;Humidity;BMP_temperature;BMP_pressure;BME280_temperature;BME280_humidity;BME280_pressure;Samples;Min_cycle;Max_cycle;Signal;HPM_P1;HPM_P2
2022/12/07 00:01:07;;;;;;;;;;;;;;;-143.57;100.00;51454.06;5064943;28;20808;-68
2022/12/07 00:03:34;;;;;;;;;;;;;;;-143.57;100.00;51426.25;5064211;28;20598;-68
2022/12/07 00:06:01;;;;;;;;;;;;;;;-143.57;100.00;51454.06;5069846;28;19934;-68
2022/12/07 00:08:28;;;;;;;;;;;;;;;-143.57;100.00;51434.19;5065639;28;19951;-68
2022/12/07 00:10:55;;;;;;;;;;;;;;;-143.57;100.00;51481.91;5063540;28;20040;-68
2022/12/07 00:13:21;;;;;;;;;;;;;;;-143.57;100.00;51438.16;5066708;28;20003;-68
2022/12/07 00:15:48;;;;;;;;;;;;;;;-143.57;100.00;51438.16;5067474;28;20486;-68
2022/12/07 00:18:15;;;;;;;;;;;;;;;-143.57;100.00;51438.16;5072822;28;20026;-68
2022/12/07 00:20:41;;;;;;;;;;;;;;;-143.57;100.00;51446.13;5064097;28;19924;-68
2022/12/07 00:23:08;;;;;;;;;;;;;;;-143.57;100.00;51477.94;5073468;28;20409;-68
2022/12/07 00:25:35;;;;;;;;;;;;;;;-143.57;100.00;51454.06;5070738;28;19964;-68
2022/12/07 00:28:01;;;;;;;;;;;;;;;-143.57;100.00;51426.25;5070773;28;19924;-68
2022/12/07 00:30:28;;;;;;;;;;;;;;;-143.57;100.00;51454.06;5061392;28;19928;-67
2022/12/07 00:32:55;;;;;;;;;;;;;;;-143.57;100.00;51473.94;5066197;28;19939;-67
2022/12/07 00:35:22;;;;;;;;;;;;;;;-143.57;100.00;51446.13;5070138;28;19928;-67
2022/12/07 00:37:48;;;;;;;;;;;;;;;-143.57;100.00;51462.03;5067640;28;19989;-67
2022/12/07 00:40:15;;;;;;;;;;;;;;;-143.57;100.00;51469.97;5073425;28;19932;-67
2022/12/07 00:42:41;;;;;;;;;;;;;;;-143.57;100.00;51454.06;5068810;28;19924;-67
2022/12/07 00:45:08;;;;;;;;;;;;;;;-143.57;100.00;51440.16;5070533;28;19928;-67
2022/12/07 00:47:35;;;;;;;;;;;;;;;-143.57;100.00;51481.91;5069781;28;19990;-68
2022/12/07 00:50:02;;;;;;;;;;;;;;;-143.57;100.00;51418.28;5066006;28;19932;-68
2022/12/07 00:52:29;;;;;;;;;;;;;;;-143.57;100.00;51434.19;5065318;28;19993;-67
2022/12/07 00:54:56;;;;;;;;;;;;;;;-143.57;100.00;51462.03;5066338;28;19972;-68
2022/12/07 00:57:22;;;;;;;;;;;;;;;-143.57;100.00;51446.13;5062190;28;19928;-68
2022/12/07 00:59:49;;;;;;;;;;;;;;;-143.57;100.00;51462.03;5063504;28;20610;-68
2022/12/07 01:02:16;;;;;;;;;;;;;;;-143.57;100.00;51454.06;5069856;28;20003;-68
2022/12/07 01:04:42;;;;;;;;;;;;;;;-143.57;100.00;51442.16;5060521;28;20324;-68
2022/12/07 01:07:09;;;;;;;;;;;;;;;-143.57;100.00;51434.19;5065244;28;19928;-68
2022/12/07 01:09:35;;;;;;;;;;;;;;;-143.57;100.00;51450.09;5067551;28;20528;-68
2022/12/07 01:12:02;;;;;;;;;;;;;;;-143.57;100.00;51448.09;5063112;28;19967;-69
2022/12/07 01:14:29;;;;;;;;;;;;;;;-143.57;100.00;51422.25;5065683;28;19986;-69
2022/12/07 01:16:55;;;;;;;;;;;;;;;-143.57;100.00;51422.25;5070391;28;20025;-69
2022/12/07 01:19:22;;;;;;;;;;;;;;;-143.57;100.00;51462.03;5063666;28;20472;-69
2022/12/07 01:21:49;;;;;;;;;;;;;;;-143.57;100.00;51469.97;5068271;28;19932;-69
2022/12/07 01:24:15;;;;;;;;;;;;;;;-143.57;100.00;51468.00;5064536;28;19994;-69
2022/12/07 01:26:42;;;;;;;;;;;;;;;-143.57;100.00;51424.25;5068027;28;19924;-69
2022/12/07 01:29:08;;;;;;;;;;;;;;;-143.57;100.00;51466.00;5068398;28;19924;-68
2022/12/07 01:31:35;;;;;;;;;;;;;;;-143.57;100.00;51446.13;5065941;28;19924;-68
2022/12/07 01:34:02;;;;;;;;;;;;;;;-143.57;100.00;51448.09;5067901;28;20634;-68
2022/12/07 01:36:30;;;;;;;;;;;;;;;-143.57;100.00;51468.00;5065091;28;20026;-68
2022/12/07 01:38:58;;;;;;;;;;;;;;;-143.57;100.00;51458.03;5067883;28;19959;-68
2022/12/07 01:41:26;;;;;;;;;;;;;;;-143.57;100.00;51422.25;5063744;28;19968;-68
2022/12/07 01:44:24;;;;;;;;;;;;;;;-143.57;100.00;51440.16;5068997;28;20615;-69
2022/12/07 01:46:58;;;;;;;;;;;;;;;-143.57;100.00;51430.22;5055852;28;19924;-68
2022/12/07 01:49:27;;;;;;;;;;;;;;;-143.57;100.00;51450.09;5068235;28;19993;-68
2022/12/07 01:51:58;;;;;;;;;;;;;;;-143.57;100.00;51462.03;5062671;28;19928;-68
2022/12/07 01:54:25;;;;;;;;;;;;;;;-143.57;100.00;51438.16;5068778;28;20366;-68
2022/12/07 01:56:54;;;;;;;;;;;;;;;-143.57;100.00;51473.94;5066888;28;20609;-68
2022/12/07 01:59:24;;;;;;;;;;;;;;;-143.57;100.00;51452.09;5066975;28;19925;-68
2022/12/07 02:01:51;;;;;;;;;;;;;;;-143.57;100.00;51468.00;5065934;28;20539;-68
2022/12/07 02:04:18;;;;;;;;;;;;;;;-143.57;100.00;51469.97;5064341;28;19924;-69
2022/12/07 02:06:46;;;;;;;;;;;;;;;-143.57;100.00;51406.34;5066673;28;19943;-68
2022/12/07 02:09:13;;;;;;;;;;;;;;;-143.57;100.00;51444.13;5061533;28;20013;-69
2022/12/07 02:11:40;;;;;;;;;;;;;;;-143.57;100.00;51491.84;5063309;28;19932;-69
2022/12/07 02:14:07;;;;;;;;;;;;;;;-143.57;100.00;51426.25;5058617;28;20428;-68
2022/12/07 02:16:52;;;;;;;;;;;;;;;-143.57;100.00;51438.16;5066916;28;21347;-68
2022/12/07 02:19:21;;;;;;;;;;;;;;;-143.57;100.00;51446.13;5064290;28;20709;-68
2022/12/07 02:21:48;;;;;;;;;;;;;;;-143.57;100.00;51442.16;5064921;28;20428;-68
2022/12/07 02:24:15;;;;;;;;;;;;;;;-143.57;100.00;51454.06;5063981;28;19936;-68
2022/12/07 02:26:55;;;;;;;;;;;;;;;-143.57;100.00;51479.91;5062691;28;19924;-68
2022/12/07 02:29:22;;;;;;;;;;;;;;;-143.57;100.00;51440.16;5063605;28;19930;-68
2022/12/07 02:31:53;;;;;;;;;;;;;;;-143.57;100.00;51458.03;5067635;28;21117;-68
2022/12/07 02:34:26;;;;;;;;;;;;;;;-143.57;100.00;51442.16;5065456;28;19932;-68
2022/12/07 02:36:55;;;;;;;;;;;;;;;-143.57;100.00;51446.13;5066336;28;20593;-68
2022/12/07 02:39:31;;;;;;;;;;;;;;;-143.57;100.00;51466.00;5063965;28;19935;-68
2022/12/07 02:42:02;;;;;;;;;;;;;;;-143.57;100.00;51462.03;5057139;28;19928;-68
2022/12/07 02:44:31;;;;;;;;;;;;;;;-143.57;100.00;51438.16;5061110;28;19925;-67
2022/12/07 02:47:03;;;;;;;;;;;;;;;-143.57;100.00;51446.13;5065925;28;20162;-68
2022/12/07 02:49:31;;;;;;;;;;;;;;;-143.57;100.00;51444.13;5061900;28;19934;-68
2022/12/07 02:51:58;;;;;;;;;;;;;;;-143.57;100.00;51434.19;5063922;28;19931;-68
2022/12/07 02:54:24;;;;;;;;;;;;;;;-143.57;100.00;51460.03;5061873;28;20020;-68
2022/12/07 02:57:10;;;;;;;;;;;;;;;-143.57;100.00;51477.94;5060772;28;19932;-68
2022/12/07 02:59:47;;;;;;;;;;;;;;;-143.57;100.00;51497.81;5062704;28;19935;-68
2022/12/07 03:02:14;;;;;;;;;;;;;;;-143.57;100.00;51442.16;5066228;28;19936;-68
2022/12/07 03:04:59;;;;;;;;;;;;;;;-143.57;100.00;51487.88;5070342;28;19938;-68
2022/12/07 03:07:34;;;;;;;;;;;;;;;-143.57;100.00;51446.13;5065884;28;19928;-68
2022/12/07 03:10:10;;;;;;;;;;;;;;;-143.57;100.00;51434.19;5066492;28;19932;-68
2022/12/07 03:12:42;;;;;;;;;;;;;;;-143.57;100.00;51446.13;5059324;28;19935;-68
2022/12/07 03:15:16;;;;;;;;;;;;;;;-143.57;100.00;51430.22;5062145;28;19928;-68
2022/12/07 03:17:44;;;;;;;;;;;;;;;-143.57;100.00;51430.22;5062328;28;19935;-68
2022/12/07 03:20:13;;;;;;;;;;;;;;;-143.57;100.00;51466.00;5066977;28;19924;-66
2022/12/07 03:22:42;;;;;;;;;;;;;;;-143.57;100.00;51485.88;5059678;28;19963;-67
2022/12/07 03:25:10;;;;;;;;;;;;;;;-143.57;100.00;51446.13;5069125;28;20023;-67
2022/12/07 03:27:40;;;;;;;;;;;;;;;-143.57;100.00;51466.00;5061281;28;20019;-67
2022/12/07 03:30:16;;;;;;;;;;;;;;;-143.57;100.00;51479.91;5062648;28;20016;-67
2022/12/07 03:32:50;;;;;;;;;;;;;;;-143.57;100.00;51454.06;5063589;28;20729;-67
2022/12/07 03:35:33;;;;;;;;;;;;;;;-143.57;100.00;51426.25;5069356;28;19929;-68
2022/12/07 03:38:03;;;;;;;;;;;;;;;-143.57;100.00;51497.81;5060438;28;19932;-67
2022/12/07 03:40:32;;;;;;;;;;;;;;;-143.57;100.00;51418.28;5059529;28;19933;-68
2022/12/07 03:43:01;;;;;;;;;;;;;;;-143.57;100.00;51442.16;5060822;28;19958;-67
2022/12/07 03:45:32;;;;;;;;;;;;;;;-143.57;100.00;51481.91;5061763;28;20338;-67
2022/12/07 03:48:07;;;;;;;;;;;;;;;-143.57;100.00;51454.06;5063007;28;19994;-67
2022/12/07 03:50:38;;;;;;;;;;;;;;;-143.57;100.00;51473.94;5065287;28;19932;-68
2022/12/07 03:53:10;;;;;;;;;;;;;;;-143.57;100.00;51446.13;5066974;28;19928;-67
2022/12/07 03:55:39;;;;;;;;;;;;;;;-143.57;100.00;51458.03;5061549;28;21326;-67
2022/12/07 03:58:08;;;;;;;;;;;;;;;-143.57;100.00;51483.88;5062283;28;19924;-67
2022/12/07 04:00:35;;;;;;;;;;;;;;;-143.57;100.00;51422.25;5064709;28;19993;-67
2022/12/07 04:03:02;;;;;;;;;;;;;;;-143.57;100.00;51410.34;5044321;28;19925;-67
2022/12/07 04:05:29;;;;;;;;;;;;;;;-143.57;100.00;51430.22;5066643;28;19928;-68
2022/12/07 04:07:55;;;;;;;;;;;;;;;-143.57;100.00;51438.16;5070228;28;20413;-67
2022/12/07 04:10:22;;;;;;;;;;;;;;;-143.57;100.00;51458.03;5062523;28;19932;-68
2022/12/07 04:12:48;;;;;;;;;;;;;;;-143.57;100.00;51477.94;5061869;28;20011;-68
2022/12/07 04:15:15;;;;;;;;;;;;;;;-143.57;100.00;51493.84;5094348;27;19932;-67
2022/12/07 04:17:42;;;;;;;;;;;;;;;-143.57;100.00;51497.81;5063805;28;19931;-67
2022/12/07 04:20:09;;;;;;;;;;;;;;;-143.57;100.00;51473.94;5059852;28;19928;-67
2022/12/07 04:22:35;;;;;;;;;;;;;;;-143.57;100.00;51491.84;5064375;28;20326;-68
2022/12/07 04:25:02;;;;;;;;;;;;;;;-143.57;100.00;51497.81;5072385;28;19925;-68
2022/12/07 04:27:29;;;;;;;;;;;;;;;-143.57;100.00;51469.97;5072358;28;19928;-69
2022/12/07 04:29:56;;;;;;;;;;;;;;;-143.57;100.00;51477.94;5079013;28;20406;-67
2022/12/07 04:32:23;;;;;;;;;;;;;;;-143.57;100.00;51454.06;5067920;28;19932;-67
2022/12/07 04:34:49;;;;;;;;;;;;;;;-143.57;100.00;51458.03;5068897;28;19929;-66
2022/12/07 04:37:21;;;;;;;;;;;;;;;-143.57;100.00;51406.34;5065674;27;20691;-67
2022/12/07 04:39:48;;;;;;;;;;;;;;;-143.57;100.00;51458.03;5076804;28;19931;-66
2022/12/07 04:42:15;;;;;;;;;;;;;;;-143.57;100.00;51481.91;5068597;28;19957;-67
2022/12/07 04:44:41;;;;;;;;;;;;;;;-143.57;100.00;51454.06;5072825;28;20011;-67
2022/12/07 04:47:08;;;;;;;;;;;;;;;-143.57;100.00;51450.09;5066094;28;19928;-67
2022/12/07 04:49:34;;;;;;;;;;;;;;;-143.57;100.00;51410.34;5068331;28;19928;-68
2022/12/07 04:52:01;;;;;;;;;;;;;;;-143.57;100.00;51475.94;5062386;28;19933;-68
2022/12/07 04:54:28;;;;;;;;;;;;;;;-143.57;100.00;51458.03;5075326;28;19924;-67
2022/12/07 04:56:54;;;;;;;;;;;;;;;-143.57;100.00;51434.19;5067592;28;19932;-68
2022/12/07 04:59:21;;;;;;;;;;;;;;;-143.57;100.00;51477.94;5063866;28;19936;-68
2022/12/07 05:01:48;;;;;;;;;;;;;;;-143.57;100.00;51456.06;5069085;28;19935;-68
2022/12/07 05:04:15;;;;;;;;;;;;;;;-143.57;100.00;51462.03;5061326;28;20021;-67
2022/12/07 05:06:42;;;;;;;;;;;;;;;-143.57;100.00;51414.31;5069129;28;21375;-66
2022/12/07 05:09:09;;;;;;;;;;;;;;;-143.57;100.00;51418.28;5068675;28;19928;-68
2022/12/07 05:11:39;;;;;;;;;;;;;;;-143.57;100.00;51450.09;5069414;28;19933;-67
2022/12/07 05:14:11;;;;;;;;;;;;;;;-143.57;100.00;51442.16;5065134;28;20423;-67
2022/12/07 05:16:37;;;;;;;;;;;;;;;-143.57;100.00;51436.19;5070539;28;19924;-67
2022/12/07 05:19:05;;;;;;;;;;;;;;;-143.57;100.00;51464.00;5060281;28;20006;-68
2022/12/07 05:21:31;;;;;;;;;;;;;;;-143.57;100.00;51430.22;5063100;28;19994;-67
2022/12/07 05:23:58;;;;;;;;;;;;;;;-143.57;100.00;51458.03;5058433;28;19956;-66
2022/12/07 05:26:25;;;;;;;;;;;;;;;-143.57;100.00;51479.91;5056760;28;19925;-67
2022/12/07 05:28:52;;;;;;;;;;;;;;;-143.57;100.00;51469.97;5063258;28;19931;-67
2022/12/07 05:31:22;;;;;;;;;;;;;;;-143.57;100.00;51446.13;5057884;28;20015;-66
2022/12/07 05:33:49;;;;;;;;;;;;;;;-143.57;100.00;51450.09;5057523;28;21291;-66
2022/12/07 05:36:15;;;;;;;;;;;;;;;-143.57;100.00;51442.16;5059908;28;19986;-65
2022/12/07 05:38:42;;;;;;;;;;;;;;;-143.57;100.00;51442.16;5066932;28;19956;-65
2022/12/07 05:42:11;;;;;;;;;;;;;;;-143.57;100.00;51469.97;5060653;28;19966;-65
2022/12/07 05:43:58;;;;;;;;;;;;;;;-143.57;100.00;51473.94;5064621;28;19925;-65
2022/12/07 05:46:25;;;;;;;;;;;;;;;-143.57;100.00;51438.16;5062237;28;19925;-65
2022/12/07 05:48:52;;;;;;;;;;;;;;;-143.57;100.00;51469.97;5063595;28;19943;-65
2022/12/07 05:51:18;;;;;;;;;;;;;;;-143.57;100.00;51454.06;5065152;28;21163;-64
2022/12/07 05:53:45;;;;;;;;;;;;;;;-143.57;100.00;51481.91;5062440;28;19928;-65
2022/12/07 05:56:12;;;;;;;;;;;;;;;-143.57;100.00;51462.03;5054004;28;20023;-65
2022/12/07 06:01:24;;;;;;;;;;;;;;;-143.57;100.00;51434.19;5058084;28;19936;-64
2022/12/07 06:03:50;;;;;;;;;;;;;;;-143.57;100.00;51442.16;5062314;28;20045;-65
2022/12/07 06:06:17;;;;;;;;;;;;;;;-143.57;100.00;51497.81;5064332;28;20945;-64
2022/12/07 06:08:44;;;;;;;;;;;;;;;-143.57;100.00;51483.88;5059017;28;19966;-65
2022/12/07 06:13:56;;;;;;;;;;;;;;;-143.57;100.00;51471.97;5056567;28;20152;-64
2022/12/07 06:16:22;;;;;;;;;;;;;;;-143.57;100.00;51466.00;5060822;28;19932;-65
2022/12/07 06:18:49;;;;;;;;;;;;;;;-143.57;100.00;51458.03;5060249;28;19935;-65
2022/12/07 06:21:16;;;;;;;;;;;;;;;-143.57;100.00;51446.13;5063752;28;20289;-65
2022/12/07 06:23:42;;;;;;;;;;;;;;;-143.57;100.00;51454.06;5064206;28;19929;-65
2022/12/07 06:26:09;;;;;;;;;;;;;;;-143.57;100.00;51489.84;5066386;28;20140;-65
2022/12/07 06:28:36;;;;;;;;;;;;;;;-143.57;100.00;51426.25;5064432;28;20027;-65
2022/12/07 06:31:02;;;;;;;;;;;;;;;-143.57;100.00;51462.03;5067501;28;19924;-66
2022/12/07 06:33:32;;;;;;;;;;;;;;;-143.57;100.00;51450.09;5063204;28;19928;-66
2022/12/07 06:35:59;;;;;;;;;;;;;;;-143.57;100.00;51452.09;5065481;28;19936;-66
2022/12/07 06:38:26;;;;;;;;;;;;;;;-143.57;100.00;51469.97;5064955;28;19925;-66
2022/12/07 06:40:52;;;;;;;;;;;;;;;-143.57;100.00;51426.25;5060590;28;19932;-67
2022/12/07 06:43:20;;;;;;;;;;;;;;;-143.57;100.00;51438.16;5064540;28;20501;-66
2022/12/07 06:45:46;;;;;;;;;;;;;;;-143.57;100.00;51440.16;5069898;27;19958;-66
2022/12/07 06:48:14;;;;;;;;;;;;;;;-143.57;100.00;51460.03;5067763;28;19929;-67
2022/12/07 06:50:40;;;;;;;;;;;;;;;-143.57;100.00;51466.00;5062314;28;19932;-66
2022/12/07 06:53:07;;;;;;;;;;;;;;;-143.57;100.00;51434.19;5065081;28;20050;-67
2022/12/07 06:55:34;;;;;;;;;;;;;;;-143.57;100.00;51487.88;5059439;28;19928;-67
2022/12/07 06:58:01;;;;;;;;;;;;;;;-143.57;100.00;51434.19;5067744;28;19968;-66
2022/12/07 07:00:28;;;;;;;;;;;;;;;-143.57;100.00;51446.13;5063053;28;19940;-67
2022/12/07 07:02:55;;;;;;;;;;;;;;;-143.57;100.00;51450.09;5067524;28;20054;-67
2022/12/07 07:05:22;;;;;;;;;;;;;;;-143.57;100.00;51491.84;5064589;28;19936;-66
2022/12/07 07:07:49;;;;;;;;;;;;;;;-143.57;100.00;51473.94;5069671;28;19928;-66
2022/12/07 07:10:36;;;;;;;;;;;;;;;-143.57;100.00;51442.16;5065635;28;19964;-67
2022/12/07 07:13:02;;;;;;;;;;;;;;;-143.57;100.00;51477.94;5060899;28;19928;-66
2022/12/07 07:15:29;;;;;;;;;;;;;;;-143.57;100.00;51468.00;5070409;28;19979;-67
2022/12/07 07:17:56;;;;;;;;;;;;;;;-143.57;100.00;51469.97;5064273;27;19921;-67
2022/12/07 07:20:23;;;;;;;;;;;;;;;-143.57;100.00;51477.94;5074789;28;20324;-66
2022/12/07 07:22:49;;;;;;;;;;;;;;;-143.57;100.00;51458.03;5064852;28;19929;-66
2022/12/07 07:25:16;;;;;;;;;;;;;;;-143.57;100.00;51448.09;5076794;28;19924;-66
2022/12/07 07:27:42;;;;;;;;;;;;;;;-143.57;100.00;51464.00;5072074;28;19935;-66
2022/12/07 07:30:09;;;;;;;;;;;;;;;-143.57;100.00;51408.34;5071152;28;19929;-65
2022/12/07 07:32:36;;;;;;;;;;;;;;;-143.57;100.00;51450.09;5071339;28;19939;-66
2022/12/07 07:35:03;;;;;;;;;;;;;;;-143.57;100.00;51446.13;5074503;28;19960;-66
2022/12/07 07:37:30;;;;;;;;;;;;;;;-143.57;100.00;51442.16;5066957;28;20023;-65
2022/12/07 07:39:56;;;;;;;;;;;;;;;-143.57;100.00;51481.91;5066759;28;19960;-65
2022/12/07 07:42:23;;;;;;;;;;;;;;;-143.57;100.00;51434.19;5074652;28;20147;-65
2022/12/07 07:44:50;;;;;;;;;;;;;;;-143.57;100.00;51430.22;5070173;28;19942;-65
2022/12/07 07:47:16;;;;;;;;;;;;;;;-143.57;100.00;51458.03;5064717;28;19935;-66
2022/12/07 07:49:44;;;;;;;;;;;;;;;-143.57;100.00;51462.03;5069678;28;19955;-66
2022/12/07 07:52:13;;;;;;;;;;;;;;;-143.57;100.00;51473.94;5065240;28;20390;-66
2022/12/07 07:54:40;;;;;;;;;;;;;;;-143.57;100.00;51424.25;5066796;28;20031;-65
2022/12/07 07:57:07;;;;;;;;;;;;;;;-143.57;100.00;51450.09;5067429;28;19964;-65
2022/12/07 07:59:34;;;;;;;;;;;;;;;-143.57;100.00;51466.00;5063603;27;19931;-66
2022/12/07 08:02:00;;;;;;;;;;;;;;;-143.57;100.00;51426.25;5067803;28;19959;-65
2022/12/07 08:04:27;;;;;;;;;;;;;;;-143.57;100.00;51481.91;5066853;28;19967;-65
2022/12/07 08:06:54;;;;;;;;;;;;;;;-143.57;100.00;51446.13;5069942;28;20444;-65
2022/12/07 08:09:21;;;;;;;;;;;;;;;-143.57;100.00;51410.34;5069096;28;19934;-64
2022/12/07 08:11:47;;;;;;;;;;;;;;;-143.57;100.00;51442.16;5062115;28;21381;-64
2022/12/07 08:14:14;;;;;;;;;;;;;;;-143.57;100.00;51466.00;5066673;28;19967;-64
2022/12/07 08:16:40;;;;;;;;;;;;;;;-143.57;100.00;51454.06;5058345;28;19928;-67
2022/12/07 08:19:07;;;;;;;;;;;;;;;-143.57;100.00;51446.13;5066977;28;20030;-65
2022/12/07 08:21:34;;;;;;;;;;;;;;;-143.57;100.00;51438.16;5062087;28;20531;-66
2022/12/07 08:24:00;;;;;;;;;;;;;;;-143.57;100.00;51446.13;5067800;28;19921;-66
2022/12/07 08:26:27;;;;;;;;;;;;;;;-143.57;100.00;51462.03;5062506;28;19932;-66
2022/12/07 08:28:54;;;;;;;;;;;;;;;-143.57;100.00;51446.13;5066456;28;19931;-66
2022/12/07 08:31:21;;;;;;;;;;;;;;;-143.57;100.00;51462.03;5061393;28;19967;-66
2022/12/07 08:33:47;;;;;;;;;;;;;;;-143.57;100.00;51434.19;5066309;28;19974;-66
2022/12/07 08:36:15;;;;;;;;;;;;;;;-143.57;100.00;51442.16;5062785;28;20500;-68
2022/12/07 08:38:42;;;;;;;;;;;;;;;-143.57;100.00;51438.16;5067201;28;20019;-66
2022/12/07 08:41:28;;;;;;;;;;;;;;;-143.57;100.00;51442.16;5069398;28;19928;-66
2022/12/07 08:43:55;;;;;;;;;;;;;;;-143.57;100.00;51481.91;5095988;27;19925;-67
2022/12/07 08:46:25;;;;;;;;;;;;;;;-143.57;100.00;51424.25;5064140;28;20481;-66
2022/12/07 08:49:18;;;;;;;;;;;;;;;-143.57;100.00;51485.88;5060716;28;19939;-66
2022/12/07 08:51:46;;;;;;;;;;;;;;;-143.57;100.00;51469.97;5060450;28;19924;-66
2022/12/07 08:54:16;;;;;;;;;;;;;;;-143.57;100.00;51448.09;5060130;28;19932;-66
2022/12/07 08:56:44;;;;;;;;;;;;;;;-143.57;100.00;51446.13;5062442;28;19928;-66
2022/12/07 08:59:12;;;;;;;;;;;;;;;-143.57;100.00;51406.34;5057042;28;19959;-66
2022/12/07 09:01:39;;;;;;;;;;;;;;;-143.57;100.00;51446.13;5064647;28;20007;-68
2022/12/07 09:04:06;;;;;;;;;;;;;;;-143.57;100.00;51450.09;5062794;28;19932;-68
2022/12/07 09:06:33;;;;;;;;;;;;;;;-143.57;100.00;51450.09;5060294;28;19935;-67
2022/12/07 09:09:01;;;;;;;;;;;;;;;-143.57;100.00;51438.16;5058443;28;20317;-68
2022/12/07 09:11:27;;;;;;;;;;;;;;;-143.57;100.00;51462.03;5062501;28;19940;-67
2022/12/07 09:13:54;;;;;;;;;;;;;;;-143.57;100.00;51426.25;5058711;28;19935;-67
2022/12/07 09:16:21;;;;;;;;;;;;;;;-143.57;100.00;51420.28;5060167;28;19972;-66
2022/12/07 09:18:48;;;;;;;;;;;;;;;-143.57;100.00;51426.25;5061328;28;20106;-66
2022/12/07 09:21:15;;;;;;;;;;;;;;;-143.57;100.00;51436.19;5062018;28;19947;-66
2022/12/07 09:23:42;;;;;;;;;;;;;;;-143.57;100.00;51442.16;5060505;28;20019;-66
2022/12/07 09:26:09;;;;;;;;;;;;;;;-143.57;100.00;51414.31;5059307;28;19966;-67
2022/12/07 09:28:36;;;;;;;;;;;;;;;-143.57;100.00;51446.13;5098501;27;20613;-67
2022/12/07 09:31:04;;;;;;;;;;;;;;;-143.57;100.00;51450.09;5056699;28;20025;-68
2022/12/07 09:33:57;;;;;;;;;;;;;;;-143.57;100.00;51436.19;5063365;28;19998;-66
2022/12/07 09:36:25;;;;;;;;;;;;;;;-143.57;100.00;51442.16;5063278;28;19932;-68
2022/12/07 09:38:51;;;;;;;;;;;;;;;-143.57;100.00;51442.16;5064366;28;20320;-68
2022/12/07 09:41:19;;;;;;;;;;;;;;;-143.57;100.00;51438.16;5064422;28;20409;-68
2022/12/07 09:43:46;;;;;;;;;;;;;;;-143.57;100.00;51458.03;5065213;28;19963;-68
2022/12/07 09:46:15;;;;;;;;;;;;;;;-143.57;100.00;51428.22;5059695;28;19971;-67
2022/12/07 09:48:42;;;;;;;;;;;;;;;-143.57;100.00;51454.06;5063486;28;19931;-68
2022/12/07 09:51:14;;;;;;;;;;;;;;;-143.57;100.00;51418.28;5058038;28;19962;-68
2022/12/07 09:53:48;;;;;;;;;;;;;;;-143.57;100.00;51396.41;5062870;28;19940;-68
2022/12/07 09:56:16;;;;;;;;;;;;;;;-143.57;100.00;51430.22;5056239;28;19939;-68
2022/12/07 09:58:43;;;;;;;;;;;;;;;-143.57;100.00;51434.19;5060804;28;20417;-68
2022/12/07 10:01:20;;;;;;;;;;;;;;;-143.57;100.00;51438.16;5054490;28;20422;-67
2022/12/07 10:03:50;;;;;;;;;;;;;;;-143.57;100.00;51438.16;5052879;28;20043;-68
2022/12/07 10:06:17;;;;;;;;;;;;;;;-143.57;100.00;51438.16;5060848;28;19948;-68
2022/12/07 10:08:43;;;;;;;;;;;;;;;-143.57;100.00;51466.00;5056900;28;19924;-68
2022/12/07 10:11:10;;;;;;;;;;;;;;;-143.57;100.00;51458.03;5055908;28;20062;-66
2022/12/07 10:13:39;;;;;;;;;;;;;;;-143.57;100.00;51456.06;5057753;28;20011;-66
2022/12/07 10:16:06;;;;;;;;;;;;;;;-143.57;100.00;51398.41;5064875;28;19932;-68
2022/12/07 10:18:44;;;;;;;;;;;;;;;-143.57;100.00;51444.13;5061512;28;20032;-67
2022/12/07 10:21:12;;;;;;;;;;;;;;;-143.57;100.00;51444.13;5071236;28;19932;-67
2022/12/07 10:23:40;;;;;;;;;;;;;;;-143.57;100.00;51462.03;5068902;28;19928;-67
2022/12/07 10:26:20;;;;;;;;;;;;;;;-143.57;100.00;51378.53;5075592;28;20420;-67
2022/12/07 10:28:48;;;;;;;;;;;;;;;-143.57;100.00;51481.91;5062708;28;19985;-67
2022/12/07 10:31:16;;;;;;;;;;;;;;;-143.57;100.00;51471.97;5065452;27;19978;-67
2022/12/07 10:34:00;;;;;;;;;;;;;;;-143.57;100.00;51426.25;5062075;28;19928;-66
2022/12/07 10:36:34;;;;;;;;;;;;;;;-143.57;100.00;51438.16;5060312;28;19936;-67
2022/12/07 10:39:03;;;;;;;;;;;;;;;-143.57;100.00;51473.94;5069503;28;19936;-67
2022/12/07 10:41:30;;;;;;;;;;;;;;;-143.57;100.00;51402.38;5073903;27;19924;-67
2022/12/07 10:43:57;;;;;;;;;;;;;;;-143.57;100.00;51418.28;5070622;28;19932;-67
2022/12/07 10:46:45;;;;;;;;;;;;;;;-143.57;100.00;51469.97;5071930;28;19981;-67
2022/12/07 10:49:27;;;;;;;;;;;;;;;-143.57;100.00;51414.31;5062312;28;19928;-67
2022/12/07 10:52:03;;;;;;;;;;;;;;;-143.57;100.00;51426.25;5064158;28;20401;-68
2022/12/07 10:54:49;;;;;;;;;;;;;;;-143.57;100.00;51418.28;5094721;27;19931;-69
2022/12/07 10:57:27;;;;;;;;;;;;;;;-143.57;100.00;51436.19;5062375;28;19932;-67
2022/12/07 10:59:54;;;;;;;;;;;;;;;-143.57;100.00;51434.19;5064947;28;19932;-68
2022/12/07 11:02:40;;;;;;;;;;;;;;;-143.57;100.00;51418.28;5064673;28;19931;-69
2022/12/07 11:05:25;;;;;;;;;;;;;;;-143.57;100.00;51430.22;5067233;28;20371;-68
2022/12/07 11:08:05;;;;;;;;;;;;;;;-143.57;100.00;51390.47;5066479;28;19928;-67
2022/12/07 11:10:39;;;;;;;;;;;;;;;-143.57;100.00;51410.34;5061971;28;19932;-68
2022/12/07 11:13:18;;;;;;;;;;;;;;;-143.57;100.00;51414.31;5058639;28;21819;-67
2022/12/07 11:16:00;;;;;;;;;;;;;;;-143.57;100.00;51434.19;5062926;28;19940;-71
2022/12/07 11:19:06;;;;;;;;;;;;;;;-143.57;100.00;51430.22;5074163;28;19993;-70
2022/12/07 11:21:48;;;;;;;;;;;;;;;-143.57;100.00;51418.28;5046226;28;19925;-71
2022/12/07 11:24:16;;;;;;;;;;;;;;;-143.57;100.00;51418.28;5043464;28;20367;-70
2022/12/07 11:27:02;;;;;;;;;;;;;;;-143.57;100.00;51446.13;5060196;28;19936;-71
2022/12/07 11:29:40;;;;;;;;;;;;;;;-143.57;100.00;51422.25;5060096;28;20310;-70
2022/12/07 11:32:10;;;;;;;;;;;;;;;-143.57;100.00;51408.34;5064846;28;19931;-71
2022/12/07 11:34:48;;;;;;;;;;;;;;;-143.57;100.00;51418.28;5065751;28;19928;-70
2022/12/07 11:37:18;;;;;;;;;;;;;;;-143.57;100.00;51450.09;5064028;28;19935;-70
2022/12/07 11:39:49;;;;;;;;;;;;;;;-143.57;100.00;51422.25;5062491;28;20146;-70
2022/12/07 11:42:27;;;;;;;;;;;;;;;-143.57;100.00;51422.25;5067408;28;20639;-71
2022/12/07 11:45:01;;;;;;;;;;;;;;;-143.57;100.00;51430.22;5059971;28;19924;-69
2022/12/07 11:47:28;;;;;;;;;;;;;;;-143.57;100.00;51475.94;5060227;28;19959;-70
2022/12/07 11:50:00;;;;;;;;;;;;;;;-143.57;100.00;51469.97;5062434;28;20387;-71
2022/12/07 11:52:34;;;;;;;;;;;;;;;-143.57;100.00;51430.22;5062661;28;19940;-70
2022/12/07 11:55:02;;;;;;;;;;;;;;;-143.57;100.00;51402.38;5058841;28;19936;-71
2022/12/07 11:57:51;;;;;;;;;;;;;;;-143.57;100.00;51422.25;5066477;28;19928;-70
2022/12/07 12:00:17;;;;;;;;;;;;;;;-143.57;100.00;51438.16;5064758;28;20337;-71
2022/12/07 12:02:55;;;;;;;;;;;;;;;-143.57;100.00;51402.38;5066640;28;20122;-71
2022/12/07 12:05:23;;;;;;;;;;;;;;;-143.57;100.00;51450.09;5065762;28;19935;-70
2022/12/07 12:07:59;;;;;;;;;;;;;;;-143.57;100.00;51448.09;5058376;28;20001;-70
2022/12/07 12:10:52;;;;;;;;;;;;;;;-143.57;100.00;51378.53;5062456;28;19928;-69
2022/12/07 12:13:28;;;;;;;;;;;;;;;-143.57;100.00;51410.34;5063026;28;20112;-68
2022/12/07 12:16:22;;;;;;;;;;;;;;;-143.57;100.00;51442.16;5056975;28;19932;-69
2022/12/07 12:19:15;;;;;;;;;;;;;;;-143.57;100.00;51420.28;5066310;28;19954;-70
2022/12/07 12:21:42;;;;;;;;;;;;;;;-143.57;100.00;51422.25;5042488;28;19928;-70
2022/12/07 12:24:18;;;;;;;;;;;;;;;-143.57;100.00;51442.16;5059961;28;19932;-69
2022/12/07 12:26:51;;;;;;;;;;;;;;;-143.57;100.00;51394.44;5089371;27;19978;-69
2022/12/07 12:29:28;;;;;;;;;;;;;;;-143.57;100.00;51418.28;5063842;28;19972;-70
2022/12/07 12:32:06;;;;;;;;;;;;;;;-143.57;61.81;51416.28;5060325;28;19984;-70
2022/12/07 12:34:38;;;;;;;;;;;;;;;-143.57;57.93;51386.47;5067401;28;19982;-70
2022/12/07 12:37:28;;;;;;;;;;;;;;;-143.57;58.40;51406.34;5054174;28;19934;-69